SAOC/RCU METAR and TAF weather

Enter ICAO airport designator
Station Type Date Time Source
SAOC METAR 2020/06/01 16:00 UTC NOAA

SAOC 011600Z 05010KT CAVOK 13/M03 Q1023


Station Type Date Time Source
SAOC Decoded METAR 2020/06/01 16:00 UTC NOAA

Rio Cuarto Aerodrome, Argentina (SAOC) 33-07S 064-14W 421M
Jun 01, 2020 - 12:00 PM EDT / 2020.06.01 1600 UTC
Wind: from the NE (050 degrees) at 12 MPH (10 KT):0
Visibility: greater than 7 mile(s):0
Temperature: 55 F (13 C)
Dew Point: 26 F (-3 C)
Relative Humidity: 32%
Pressure (altimeter): 30.21 in. Hg (1023 hPa)
ob: SAOC 011600Z 05010KT CAVOK 13/M03 Q1023
cycle: 16

Station Type Date Time Source
SAOC TAF 2020/03/24 00:33 UTC NOAA

TAF SAOC 242300Z 2500/2524 36015KT CAVOK TX24/2519Z TN17/2510Z
BECMG 2502/2505 18020KT 4000 TSRA SCT010 BKN020 FEW040CB

Example: see airport list